createdAt,value
2022-08-27T00:01:19.014Z,238.73684
2022-08-27T00:06:20.593Z,250.46766
2022-08-27T00:11:22.363Z,243.02913
2022-08-27T00:16:24.053Z,250.46766
2022-08-27T00:21:25.735Z,241.58454
2022-08-27T00:26:27.374Z,248.9505
2022-08-27T00:31:29.070Z,248.9505
2022-08-27T00:36:30.777Z,248.9505
2022-08-27T00:41:32.444Z,240.15385
2022-08-27T00:46:34.153Z,252
2022-08-27T00:51:35.806Z,248.9505
2022-08-27T00:56:37.390Z,240.15385
2022-08-27T01:01:39.063Z,253.54774
2022-08-27T01:06:40.681Z,245.96078
2022-08-27T01:11:42.263Z,247.44828
2022-08-27T01:16:43.922Z,256.69036
2022-08-27T01:21:45.550Z,247.44828
2022-08-27T01:26:47.128Z,241.58454
2022-08-27T01:31:48.766Z,240.15385
2022-08-27T01:36:50.379Z,238.73684
2022-08-27T01:41:58.825Z,248.9505
2022-08-27T01:47:00.466Z,253.54774
2022-08-27T01:52:02.113Z,238.73684
2022-08-27T01:57:03.730Z,244.4878
2022-08-27T02:02:05.377Z,238.73684
2022-08-27T02:07:07.036Z,237.33333
2022-08-27T02:12:08.646Z,231.85047
2022-08-27T02:17:10.269Z,222.73303
2022-08-27T02:22:11.892Z,198.54545
2022-08-27T02:27:13.519Z,189.41833
2022-08-27T02:32:22.744Z,198.54545
2022-08-27T02:37:33.587Z,192.3871
2022-08-27T02:42:35.178Z,184.625
2022-08-27T02:47:36.793Z,189.41833
2022-08-27T02:52:38.425Z,216.56637
2022-08-27T02:57:40.021Z,261.52577
2022-08-27T03:02:41.674Z,269.92593
2022-08-27T03:07:43.449Z,250.46766
2022-08-27T03:12:45.098Z,233.20188
2022-08-27T03:17:46.729Z,198.54545
2022-08-27T03:22:48.341Z,209.51724
2022-08-27T03:27:49.950Z,193.39271
2022-08-27T03:32:51.589Z,189.41833
2022-08-27T03:37:53.255Z,173.85075
2022-08-27T03:42:54.896Z,198.54545
2022-08-27T03:47:56.511Z,186.51969
2022-08-27T03:52:58.176Z,205.01695
2022-08-27T03:57:59.747Z,205.01695
2022-08-27T04:03:01.412Z,201.74059
2022-08-27T04:08:03.070Z,198.54545
2022-08-27T04:13:04.668Z,198.54545
2022-08-27T04:18:06.231Z,199.60166
2022-08-27T04:23:07.847Z,185.56863
2022-08-27T04:28:09.822Z,208.37768
2022-08-27T04:33:11.571Z,208.37768
2022-08-27T04:38:13.181Z,195.42857
2022-08-27T04:43:14.800Z,194.4065
2022-08-27T04:48:19.409Z,202.82353
2022-08-27T04:53:21.059Z,198.54545
2022-08-27T04:58:23.784Z,208.37768
2022-08-27T05:03:25.417Z,205.01695
2022-08-27T05:08:27.047Z,206.12766
2022-08-27T05:13:28.775Z,212.99563
2022-08-27T05:18:30.403Z,227.87097
2022-08-27T05:23:32.055Z,221.47748
2022-08-27T05:28:38.409Z,215.36564
2022-08-27T05:33:40.006Z,212.99563
2022-08-27T05:38:41.623Z,224
2022-08-27T05:43:47.780Z,229.18519
2022-08-27T05:48:51.462Z,227.87097
2022-08-27T05:53:53.145Z,219
2022-08-27T05:58:54.872Z,233.20188
2022-08-27T06:03:56.448Z,227.87097
2022-08-27T06:08:58.073Z,217.77778
2022-08-27T06:13:59.658Z,227.87097
2022-08-27T06:19:01.713Z,229.18519
2022-08-27T06:24:03.321Z,230.51163
2022-08-27T06:29:05.420Z,235.94313
2022-08-27T06:34:07.512Z,230.51163
2022-08-27T06:39:09.443Z,229.18519
2022-08-27T06:44:11.057Z,224
2022-08-27T06:49:12.681Z,224
2022-08-27T06:54:14.304Z,217.77778
2022-08-27T06:59:16.123Z,216.56637
2022-08-27T07:04:17.738Z,220.23318
2022-08-27T07:09:19.701Z,224
2022-08-27T07:14:21.305Z,230.51163
2022-08-27T07:19:22.916Z,229.18519
2022-08-27T07:24:24.532Z,229.18519
2022-08-27T07:29:29.179Z,227.87097
2022-08-27T07:34:33.331Z,216.56637
2022-08-27T07:39:34.969Z,227.87097
2022-08-27T07:44:36.545Z,226.56881
2022-08-27T07:49:38.283Z,207.24786
2022-08-27T07:54:39.892Z,209.51724
2022-08-27T07:59:41.459Z,208.37768
2022-08-27T08:04:43.031Z,207.24786
2022-08-27T08:09:44.648Z,212.99563
2022-08-27T08:14:46.353Z,222.73303
2022-08-27T08:20:08.528Z,219
2022-08-27T08:25:17.457Z,214.17544
2022-08-27T08:30:19.142Z,199.60166
2022-08-27T08:35:20.846Z,208.37768
2022-08-27T08:40:22.619Z,208.37768
2022-08-27T08:45:24.258Z,205.01695
2022-08-27T08:50:25.825Z,216.56637
2022-08-27T08:55:27.581Z,226.56881
2022-08-27T09:00:29.252Z,211.82609
2022-08-27T09:05:30.833Z,211.82609
2022-08-27T09:10:32.413Z,198.54545
2022-08-27T09:15:34.066Z,215.36564
2022-08-27T09:20:35.643Z,207.24786
2022-08-27T09:25:37.612Z,203.91561
2022-08-27T09:30:39.263Z,214.17544
2022-08-27T09:35:40.907Z,212.99563
2022-08-27T09:40:42.614Z,208.37768
2022-08-27T09:45:44.329Z,209.51724
2022-08-27T09:50:45.964Z,207.24786
2022-08-27T09:55:47.569Z,197.49794
2022-08-27T10:00:49.256Z,208.37768
2022-08-27T10:05:50.904Z,206.12766
2022-08-27T10:10:52.466Z,193.39271
2022-08-27T10:15:54.065Z,197.49794
2022-08-27T10:20:56.552Z,200.66667
2022-08-27T10:25:58.884Z,202.82353
2022-08-27T10:31:00.487Z,189.41833
2022-08-27T10:36:02.174Z,189.41833
2022-08-27T10:41:05.706Z,188.44444
2022-08-27T10:46:07.320Z,198.54545
2022-08-27T10:51:08.978Z,200.66667
2022-08-27T10:56:10.735Z,194.4065
2022-08-27T11:01:15.708Z,196.45902
2022-08-27T11:06:17.383Z,196.45902
2022-08-27T11:16:33.595Z,191.38956
2022-08-27T11:21:35.261Z,194.4065
2022-08-27T11:26:36.928Z,184.625
2022-08-27T11:31:38.612Z,185.56863
2022-08-27T11:36:40.225Z,185.56863
2022-08-27T11:41:44.752Z,182.75969
2022-08-27T11:46:47.506Z,180.01533
2022-08-27T11:51:49.205Z,189.41833
2022-08-27T11:56:50.772Z,180.92308
2022-08-27T12:01:52.389Z,185.56863
2022-08-27T12:06:54.009Z,180.01533
2022-08-27T12:11:56.689Z,184.625
2022-08-27T12:16:58.474Z,187.47826
2022-08-27T12:22:00.052Z,191.38956
2022-08-27T12:27:01.656Z,188.44444
2022-08-27T12:32:03.409Z,182.75969
2022-08-27T12:37:06.466Z,179.1145
2022-08-27T12:42:09.181Z,177.33333
2022-08-27T12:47:10.874Z,182.75969
2022-08-27T12:52:12.532Z,177.33333
2022-08-27T12:57:14.134Z,176.45283
2022-08-27T13:02:15.842Z,185.56863
2022-08-27T13:07:17.485Z,187.47826
2022-08-27T13:12:19.106Z,194.4065
2022-08-27T13:17:20.811Z,181.83784
2022-08-27T13:22:22.390Z,177.33333
2022-08-27T13:27:23.953Z,176.45283
2022-08-27T13:32:25.525Z,175.57895
2022-08-27T13:37:27.138Z,171.30627
2022-08-27T13:42:28.744Z,183.68872
2022-08-27T13:47:33.191Z,175.57895
2022-08-27T13:52:34.806Z,175.57895
2022-08-27T13:57:36.420Z,179.1145
2022-08-27T14:02:38.106Z,186.51969
2022-08-27T14:07:39.850Z,184.625
2022-08-27T14:12:41.483Z,177.33333
2022-08-27T14:17:43.077Z,172.14815
2022-08-27T14:22:44.706Z,180.92308
2022-08-27T14:27:54.223Z,190.4
2022-08-27T14:32:57.136Z,179.1145
2022-08-27T14:37:58.875Z,191.38956
2022-08-27T14:43:00.444Z,186.51969
2022-08-27T14:48:02.545Z,199.60166
2022-08-27T14:53:04.222Z,196.45902
2022-08-27T14:58:05.799Z,195.42857
2022-08-27T15:03:07.390Z,203.91561
2022-08-27T15:08:08.994Z,202.82353
2022-08-27T15:13:14.631Z,191.38956
2022-08-27T15:18:16.222Z,198.54545
2022-08-27T15:23:17.844Z,203.91561
2022-08-27T15:28:19.487Z,210.66667
2022-08-27T15:33:21.053Z,210.66667
2022-08-27T15:38:22.689Z,231.85047
2022-08-27T15:43:24.358Z,243.02913
2022-08-27T15:48:25.953Z,266.51309
2022-08-27T15:53:27.574Z,288.13408
2022-08-27T15:58:29.316Z,288.13408
2022-08-27T16:03:35.311Z,296
2022-08-27T16:08:41.923Z,284.33149
2022-08-27T16:13:44.032Z,300.06936
2022-08-27T16:18:45.636Z,300.06936
2022-08-27T16:23:47.206Z,290.06742
2022-08-27T16:28:48.773Z,286.22222
2022-08-27T16:33:50.378Z,290.06742
2022-08-27T16:38:51.970Z,310.66667
2022-08-27T16:43:53.538Z,290.06742
2022-08-27T16:49:00.917Z,294
2022-08-27T16:54:03.360Z,298.02299
2022-08-27T16:59:04.922Z,300.06936
2022-08-27T17:04:11.269Z,310.66667
2022-08-27T17:09:14.428Z,321.91411
2022-08-27T17:14:16.036Z,324.24691
2022-08-27T17:19:17.594Z,324.24691
2022-08-27T17:24:19.404Z,324.24691
2022-08-27T17:29:21.026Z,333.87342
2022-08-27T17:34:22.637Z,319.60976
2022-08-27T17:39:24.235Z,319.60976
2022-08-27T17:44:25.864Z,308.49704
2022-08-27T17:49:27.551Z,336.35669
2022-08-27T17:54:29.278Z,331.42138
2022-08-27T17:59:30.936Z,331.42138
2022-08-27T18:04:32.535Z,344
2022-08-27T18:09:34.340Z,351.94702
2022-08-27T18:14:36.421Z,349.26316
2022-08-27T18:19:39.758Z,326.6087
2022-08-27T18:24:44.328Z,360.21622
2022-08-27T18:29:45.969Z,336.35669
2022-08-27T18:34:51.694Z,349.26316
2022-08-27T18:39:53.356Z,312.86228
2022-08-27T18:44:54.999Z,317.33333
2022-08-27T18:49:56.601Z,365.91781
2022-08-27T18:54:58.211Z,336.35669
2022-08-27T18:59:59.974Z,351.94702
2022-08-27T19:05:01.619Z,363.04762
2022-08-27T19:10:03.240Z,351.94702
2022-08-27T19:15:04.833Z,336.35669
2022-08-27T19:20:06.445Z,326.6087
2022-08-27T19:25:08.033Z,354.66667
2022-08-27T19:30:09.612Z,360.21622
2022-08-27T19:35:11.215Z,365.91781
2022-08-27T19:40:13.622Z,360.21622
2022-08-27T19:45:15.904Z,351.94702
2022-08-27T19:50:24.947Z,365.91781
2022-08-27T19:55:26.523Z,336.35669
2022-08-27T20:00:28.099Z,346.61438
2022-08-27T20:05:29.766Z,336.35669
2022-08-27T20:10:36.808Z,336.35669
2022-08-27T20:15:38.735Z,333.87342
2022-08-27T20:20:42.219Z,326.6087
2022-08-27T20:25:44.610Z,336.35669
2022-08-27T20:30:48.634Z,346.61438
2022-08-27T20:35:50.544Z,317.33333
2022-08-27T20:40:52.195Z,317.33333
2022-08-27T20:45:53.884Z,331.42138
2022-08-27T20:50:55.507Z,319.60976
2022-08-27T20:55:57.081Z,302.13953
2022-08-27T21:00:58.814Z,319.60976
2022-08-27T21:06:00.515Z,329
2022-08-27T21:11:02.102Z,319.60976
2022-08-27T21:16:03.693Z,302.13953
2022-08-27T21:21:05.382Z,341.41935
2022-08-27T21:26:07.014Z,317.33333
2022-08-27T21:31:08.608Z,324.24691
2022-08-27T21:36:12.122Z,319.60976
2022-08-27T21:41:14.310Z,304.23392
2022-08-27T21:46:15.928Z,324.24691
2022-08-27T21:51:24.516Z,298.02299
2022-08-27T21:56:26.458Z,319.60976
2022-08-27T22:01:28.360Z,317.33333
2022-08-27T22:06:30.134Z,324.24691
2022-08-27T22:11:31.761Z,333.87342
2022-08-27T22:16:33.457Z,331.42138
2022-08-27T22:21:35.155Z,312.86228
2022-08-27T22:26:36.830Z,333.87342
2022-08-27T22:31:38.530Z,329
2022-08-27T22:36:40.161Z,317.33333
2022-08-27T22:41:41.839Z,346.61438
2022-08-27T22:46:48.020Z,326.6087
2022-08-27T22:51:49.902Z,357.42282
2022-08-27T22:56:51.532Z,371.77778
2022-08-27T23:01:53.137Z,360.21622
2022-08-27T23:06:54.723Z,349.26316
2022-08-27T23:11:56.362Z,351.94702
2022-08-27T23:16:58.090Z,354.66667
2022-08-27T23:21:59.723Z,357.42282
2022-08-27T23:27:01.417Z,346.61438
2022-08-27T23:32:03.065Z,346.61438
2022-08-27T23:37:04.675Z,357.42282
2022-08-27T23:42:06.379Z,351.94702
2022-08-27T23:47:07.965Z,357.42282
2022-08-27T23:52:09.743Z,354.66667
2022-08-27T23:57:11.316Z,357.42282
